Hatsu Eagle — ZNZH6 — position and weather

sailwx.info

Track history (hours):
 
Tides and Currents Weather Stations Pressure Air Temp Water Temp Dewpoint Dewpoint Depression Visibility Wind Speed Wind Dir Waves Ship Positions

Hatsu Eagle

Last reported at 2018-May-25 18:00 UTC. Time now 2018-May-25 22:45 UTC.
Position N 45°54' E 156°36'.

Type: Cargo ship. MMSI: 235335000.

Wind from 190 at 20 knots

Barometer 1010.0 mb
Air temperature 5.0 ° C
Visibility: greater than 1.1 NM
Dewpoint 2.5 ° C
Water temperature 5.0 ° C

Date/timePositionNaut miles runAvg speedWind from/ knotsBaromVisibWave heightAir tempDewpointWater temp
2018-May-25 18:00N 45°54' E 156°36'   190 / 201010.0 1.1 5.0 2.5 5.0
2018-May-23 00:00N 35°24' E 131°24'90919.6 140 / 231006.0 2.2 18.016.319.0
2018-May-21 01:36N 24°27' E 119°19'2820.0
2018-May-21 00:14N 24°08' E 118°57'619.9
2018-May-20 23:57N 24°05' E 118°52'919.9
2018-May-20 23:29N 23°59' E 118°44'1419.4
2018-May-20 22:44N 23°49' E 118°33'819.3
2018-May-20 22:19N 23°44' E 118°26'4019.5
2018-May-20 20:16N 23°24' E 117°48'620.3
2018-May-20 20:00N 23°21' E 117°43'1020.4
2018-May-20 19:31N 23°17' E 117°33'1121.1
2018-May-20 18:59N 23°11' E 117°23'1121.4
2018-May-20 18:28N 23°05' E 117°13'1121.2
2018-May-20 17:56N 22°58' E 117°04'1420.8
2018-May-20 17:15N 22°49' E 116°51'721.0
2018-May-20 16:54N 22°45' E 116°45'  
2018-May-17 11:06N 22°59' E 117°09'0 0.6
2018-May-17 11:00N 22°59' E 117°09'0 0.6
2018-May-17 10:22N 22°59' E 117°09'0 0.5
2018-May-17 10:00N 22°59' E 117°09'8 3.6
2018-May-17 07:42N 23°06' E 117°14'312.8
2018-May-17 07:27N 23°07' E 117°17'613.0
2018-May-17 07:00N 23°11' E 117°22'713.2
2018-May-17 06:27N 23°17' E 117°27'613.4
2018-May-17 06:00N 23°21' E 117°31'612.8
2018-May-17 05:30N 23°25' E 117°37'612.6
2018-May-17 05:00N 23°28' E 117°43'612.5
2018-May-17 04:30N 23°31' E 117°48'612.5
2018-May-17 04:00N 23°36' E 117°53'612.2
2018-May-17 03:30N 23°41' E 117°57'612.0
2018-May-17 03:00N 23°46' E 118°01'611.7
2018-May-17 02:30N 23°50' E 118°05'611.6
2018-May-17 02:00N 23°55' E 118°09'611.5
2018-May-17 01:30N 23°59' E 118°13'611.4
2018-May-17 01:00N 24°04' E 118°17'510.7
2018-May-17 00:30N 24°09' E 118°18'612.1
2018-May-17 00:00N 24°15' E 118°16'713.3
2018-May-16 23:30N 24°19' E 118°11'611.2
2018-May-16 23:00N 24°24' E 118°07'510.4
2018-May-16 22:30N 24°26' E 118°02'1 2.6
2018-May-16 21:58N 24°27' E 118°00'0 0.0
2018-May-16 21:28N 24°27' E 118°00'0 0.0
2018-May-16 20:58N 24°27' E 118°00'0 0.0
2018-May-16 20:25N 24°27' E 118°00'0 0.0
2018-May-16 19:55N 24°27' E 118°00'0 0.0
2018-May-16 19:28N 24°27' E 118°00'0 0.0
2018-May-16 18:58N 24°27' E 118°00'0 0.0
2018-May-16 18:28N 24°27' E 118°00'0 0.0
2018-May-16 17:58N 24°27' E 118°00'0 0.0
2018-May-16 17:28N 24°27' E 118°00'0 0.0
2018-May-16 16:58N 24°27' E 118°00'0 0.0
2018-May-16 16:28N 24°27' E 118°00'0 0.0
2018-May-16 15:58N 24°27' E 118°00'0 0.0
2018-May-16 15:28N 24°27' E 118°00'0 0.0
2018-May-16 14:58N 24°27' E 118°00'0 0.0
2018-May-16 14:28N 24°27' E 118°00'0 0.0
2018-May-16 13:58N 24°27' E 118°00'0 0.0
2018-May-16 13:28N 24°27' E 118°00'0 0.0
2018-May-16 12:58N 24°27' E 118°00'0 0.0
2018-May-16 12:28N 24°27' E 118°00'0 0.3
2018-May-16 12:00N 24°27' E 118°00'2 3.7
2018-May-16 11:30N 24°26' E 118°02'5 9.6
2018-May-16 11:00N 24°24' E 118°07'5 9.6
2018-May-16 10:30N 24°20' E 118°10'5 9.7
2018-May-16 10:00N 24°16' E 118°14'5 9.9
2018-May-16 09:30N 24°14' E 118°19'2 4.5
2018-May-16 08:58N 24°14' E 118°22'0 0.1
2018-May-16 08:28N 24°14' E 118°22'0 0.1
2018-May-16 07:55N 24°14' E 118°22'0 0.3
2018-May-16 07:28N 24°14' E 118°21'0 0.2
2018-May-16 06:58N 24°14' E 118°21'0 0.0
2018-May-16 06:28N 24°14' E 118°21'0 0.1
2018-May-16 05:52N 24°14' E 118°21'0 0.2
2018-May-16 05:28N 24°14' E 118°21'0 0.0
2018-May-16 04:58N 24°14' E 118°21'0 0.0
2018-May-16 04:28N 24°14' E 118°21'0 0.1
2018-May-16 03:58N 24°14' E 118°22'0 0.0
2018-May-16 03:28N 24°14' E 118°22'0 0.1
2018-May-16 02:58N 24°14' E 118°22'0 0.0
2018-May-16 02:28N 24°14' E 118°22'0 0.0
2018-May-16 01:58N 24°14' E 118°22'0 0.0
2018-May-16 01:22N 24°14' E 118°22'0 0.0
2018-May-16 00:46N 24°14' E 118°22'0 0.0
2018-May-16 00:28N 24°14' E 118°22'0 0.0
2018-May-15 23:58N 24°14' E 118°22'0 0.0
2018-May-15 23:22N 24°14' E 118°22'0 0.0
2018-May-15 22:58N 24°14' E 118°22'0 0.1
2018-May-15 22:28N 24°14' E 118°22'0 0.0
2018-May-15 21:58N 24°14' E 118°22'0 0.0
2018-May-15 21:25N 24°14' E 118°22'0 0.1
2018-May-15 20:43N 24°14' E 118°22'0 0.2
2018-May-15 20:28N 24°14' E 118°22'0 0.0
2018-May-15 20:00N 24°14' E 118°22'4 7.6
2018-May-15 19:30N 24°15' E 118°26'612.4
2018-May-15 18:59N 24°16' E 118°33'612.7
2018-May-15 18:29N 24°17' E 118°39'  
Track history (hours):
 
Tides and Currents Weather Stations Pressure Air Temp Water Temp Dewpoint Dewpoint Depression Visibility Wind Speed Wind Dir Waves Ship Positions

Hatsu Eagle

Last reported at 2018-May-25 18:00 UTC. Time now 2018-May-25 22:45 UTC.
Position N 45°54' E 156°36'.

Type: Cargo ship. MMSI: 235335000.

Wind from 190 at 20 knots

Barometer 1010.0 mb
Air temperature 5.0 ° C
Visibility: greater than 1.1 NM
Dewpoint 2.5 ° C
Water temperature 5.0 ° C

Date/timePositionNaut miles runAvg speedWind from/ knotsBaromVisibWave heightAir tempDewpointWater temp
2018-May-25 18:00N 45°54' E 156°36'   190 / 201010.0 1.1 5.0 2.5 5.0
2018-May-23 00:00N 35°24' E 131°24'90919.6 140 / 231006.0 2.2 18.016.319.0
2018-May-21 01:36N 24°27' E 119°19'2820.0
2018-May-21 00:14N 24°08' E 118°57'619.9
2018-May-20 23:57N 24°05' E 118°52'919.9
2018-May-20 23:29N 23°59' E 118°44'1419.4
2018-May-20 22:44N 23°49' E 118°33'819.3
2018-May-20 22:19N 23°44' E 118°26'4019.5
2018-May-20 20:16N 23°24' E 117°48'620.3
2018-May-20 20:00N 23°21' E 117°43'1020.4
2018-May-20 19:31N 23°17' E 117°33'1121.1
2018-May-20 18:59N 23°11' E 117°23'1121.4
2018-May-20 18:28N 23°05' E 117°13'1121.2
2018-May-20 17:56N 22°58' E 117°04'1420.8
2018-May-20 17:15N 22°49' E 116°51'721.0
2018-May-20 16:54N 22°45' E 116°45'  
2018-May-17 11:06N 22°59' E 117°09'0 0.6
2018-May-17 11:00N 22°59' E 117°09'0 0.6
2018-May-17 10:22N 22°59' E 117°09'0 0.5
2018-May-17 10:00N 22°59' E 117°09'8 3.6
2018-May-17 07:42N 23°06' E 117°14'312.8
2018-May-17 07:27N 23°07' E 117°17'613.0
2018-May-17 07:00N 23°11' E 117°22'713.2
2018-May-17 06:27N 23°17' E 117°27'613.4
2018-May-17 06:00N 23°21' E 117°31'612.8
2018-May-17 05:30N 23°25' E 117°37'612.6
2018-May-17 05:00N 23°28' E 117°43'612.5
2018-May-17 04:30N 23°31' E 117°48'612.5
2018-May-17 04:00N 23°36' E 117°53'612.2
2018-May-17 03:30N 23°41' E 117°57'612.0
2018-May-17 03:00N 23°46' E 118°01'611.7
2018-May-17 02:30N 23°50' E 118°05'611.6
2018-May-17 02:00N 23°55' E 118°09'611.5
2018-May-17 01:30N 23°59' E 118°13'611.4
2018-May-17 01:00N 24°04' E 118°17'510.7
2018-May-17 00:30N 24°09' E 118°18'612.1
2018-May-17 00:00N 24°15' E 118°16'713.3
2018-May-16 23:30N 24°19' E 118°11'611.2
2018-May-16 23:00N 24°24' E 118°07'510.4
2018-May-16 22:30N 24°26' E 118°02'1 2.6
2018-May-16 21:58N 24°27' E 118°00'0 0.0
2018-May-16 21:28N 24°27' E 118°00'0 0.0
2018-May-16 20:58N 24°27' E 118°00'0 0.0
2018-May-16 20:25N 24°27' E 118°00'0 0.0
2018-May-16 19:55N 24°27' E 118°00'0 0.0
2018-May-16 19:28N 24°27' E 118°00'0 0.0
2018-May-16 18:58N 24°27' E 118°00'0 0.0
2018-May-16 18:28N 24°27' E 118°00'0 0.0
2018-May-16 17:58N 24°27' E 118°00'0 0.0
2018-May-16 17:28N 24°27' E 118°00'0 0.0
2018-May-16 16:58N 24°27' E 118°00'0 0.0
2018-May-16 16:28N 24°27' E 118°00'0 0.0
2018-May-16 15:58N 24°27' E 118°00'0 0.0
2018-May-16 15:28N 24°27' E 118°00'0 0.0
2018-May-16 14:58N 24°27' E 118°00'0 0.0
2018-May-16 14:28N 24°27' E 118°00'0 0.0
2018-May-16 13:58N 24°27' E 118°00'0 0.0
2018-May-16 13:28N 24°27' E 118°00'0 0.0
2018-May-16 12:58N 24°27' E 118°00'0 0.0
2018-May-16 12:28N 24°27' E 118°00'0 0.3
2018-May-16 12:00N 24°27' E 118°00'2 3.7
2018-May-16 11:30N 24°26' E 118°02'5 9.6
2018-May-16 11:00N 24°24' E 118°07'5 9.6
2018-May-16 10:30N 24°20' E 118°10'5 9.7
2018-May-16 10:00N 24°16' E 118°14'5 9.9
2018-May-16 09:30N 24°14' E 118°19'2 4.5
2018-May-16 08:58N 24°14' E 118°22'0 0.1
2018-May-16 08:28N 24°14' E 118°22'0 0.1
2018-May-16 07:55N 24°14' E 118°22'0 0.3
2018-May-16 07:28N 24°14' E 118°21'0 0.2
2018-May-16 06:58N 24°14' E 118°21'0 0.0
2018-May-16 06:28N 24°14' E 118°21'0 0.1
2018-May-16 05:52N 24°14' E 118°21'0 0.2
2018-May-16 05:28N 24°14' E 118°21'0 0.0
2018-May-16 04:58N 24°14' E 118°21'0 0.0
2018-May-16 04:28N 24°14' E 118°21'0 0.1
2018-May-16 03:58N 24°14' E 118°22'0 0.0
2018-May-16 03:28N 24°14' E 118°22'0 0.1
2018-May-16 02:58N 24°14' E 118°22'0 0.0
2018-May-16 02:28N 24°14' E 118°22'0 0.0
2018-May-16 01:58N 24°14' E 118°22'0 0.0
2018-May-16 01:22N 24°14' E 118°22'0 0.0
2018-May-16 00:46N 24°14' E 118°22'0 0.0
2018-May-16 00:28N 24°14' E 118°22'0 0.0
2018-May-15 23:58N 24°14' E 118°22'0 0.0
2018-May-15 23:22N 24°14' E 118°22'0 0.0
2018-May-15 22:58N 24°14' E 118°22'0 0.1
2018-May-15 22:28N 24°14' E 118°22'0 0.0
2018-May-15 21:58N 24°14' E 118°22'0 0.0
2018-May-15 21:25N 24°14' E 118°22'0 0.1
2018-May-15 20:43N 24°14' E 118°22'0 0.2
2018-May-15 20:28N 24°14' E 118°22'0 0.0
2018-May-15 20:00N 24°14' E 118°22'4 7.6
2018-May-15 19:30N 24°15' E 118°26'612.4
2018-May-15 18:59N 24°16' E 118°33'612.7
2018-May-15 18:29N 24°17' E 118°39'  

Dump ship's entire track history